Time,TemperatureF,DewpointF,PressureIn,WindDirection,WindDirectionDegrees,WindSpeedMPH,WindSpeedGustMPH,Humidity,HourlyPrecipIn,Conditions,Clouds,dailyrainin,SoftwareType,DateUTC
2013-07-23 00:02:00,78.0,-99.9,29.77,North,-999,-999.0,-999.0,-999,-99.99,,,-99.99,,2013-07-23 04:02:00,
2013-07-23 00:32:00,-999.0,-99.9,29.77,SSE,158,4.0,5.0,-999,-99.99,,,-99.99,,2013-07-23 04:32:00,
2013-07-23 00:43:00,-999.0,-99.9,29.76,SSE,160,4.0,5.0,-999,-99.99,,,-99.99,,2013-07-23 04:43:00,
2013-07-23 00:53:00,-999.0,-99.9,29.76,South,169,6.0,8.0,-999,-99.99,,,-99.99,,2013-07-23 04:53:00,
2013-07-23 01:02:00,-999.0,-99.9,29.76,SSE,167,5.0,8.0,-999,-99.99,,,-99.99,,2013-07-23 05:02:00,
2013-07-23 01:11:00,-999.0,-99.9,29.76,South,172,6.0,7.0,-999,-99.99,,,-99.99,,2013-07-23 05:11:00,
2013-07-23 01:44:00,-999.0,-99.9,29.75,South,189,5.0,8.0,-999,-99.99,,,-99.99,,2013-07-23 05:44:00,
2013-07-23 01:52:00,-999.0,-99.9,29.74,SSW,193,5.0,8.0,-999,-99.99,,,-99.99,,2013-07-23 05:52:00,
2013-07-23 02:11:00,-999.0,-99.9,29.73,SSW,198,5.0,8.0,-999,-99.99,,,-99.99,,2013-07-23 06:11:00,
2013-07-23 02:22:00,-999.0,-99.9,29.72,South,186,5.0,8.0,-999,-99.99,,,-99.99,,2013-07-23 06:22:00,
2013-07-23 02:33:00,78.0,-99.9,29.73,North,-999,-999.0,-999.0,-999,-99.99,,,-99.99,,2013-07-23 06:33:00,
2013-07-23 02:42:00,-999.0,-99.9,29.73,SW,232,5.0,9.0,-999,-99.99,,,-99.99,,2013-07-23 06:42:00,
2013-07-23 02:52:00,-999.0,-99.9,29.73,SSW,202,5.0,8.0,-999,-99.99,,,-99.99,,2013-07-23 06:52:00,
2013-07-23 03:02:00,78.0,-99.9,29.73,North,-999,-999.0,-999.0,-999,-99.99,,,-99.99,,2013-07-23 07:02:00,
2013-07-23 03:12:00,-999.0,-99.9,29.72,SW,220,7.0,10.0,-999,-99.99,,,-99.99,,2013-07-23 07:12:00,
2013-07-23 03:33:00,-999.0,-99.9,29.71,SSW,212,8.0,11.0,-999,-99.99,,,-99.99,,2013-07-23 07:33:00,
2013-07-23 03:42:00,-999.0,-99.9,29.71,SW,222,8.0,11.0,-999,-99.99,,,-99.99,,2013-07-23 07:42:00,
2013-07-23 03:52:00,-999.0,-99.9,29.71,SW,229,6.0,8.0,-999,-99.99,,,-99.99,,2013-07-23 07:52:00,
2013-07-23 04:22:00,77.0,-99.9,29.70,North,-999,-999.0,-999.0,-999,-99.99,,,-99.99,,2013-07-23 08:22:00,
2013-07-23 04:33:00,-999.0,-99.9,29.70,SW,220,7.0,11.0,-999,-99.99,,,-99.99,,2013-07-23 08:33:00,
2013-07-23 04:43:00,-999.0,-99.9,29.70,SW,218,7.0,12.0,-999,-99.99,,,-99.99,,2013-07-23 08:43:00,
2013-07-23 05:01:00,-999.0,-99.9,29.71,WNW,292,11.0,13.0,-999,-99.99,,,-99.99,,2013-07-23 09:01:00,
2013-07-23 05:11:00,-999.0,-99.9,29.70,WNW,289,15.0,18.0,-999,-99.99,,,-99.99,,2013-07-23 09:11:00,
2013-07-23 05:22:00,-999.0,-99.9,29.70,WNW,289,15.0,18.0,-999,-99.99,,,-99.99,,2013-07-23 09:22:00,
2013-07-23 05:43:00,76.0,-99.9,29.70,North,-999,-999.0,-999.0,-999,-99.99,,,-99.99,,2013-07-23 09:43:00,
2013-07-23 06:11:00,-999.0,-99.9,29.70,WSW,250,3.0,3.0,-999,-99.99,,,-99.99,,2013-07-23 10:11:00,
2013-07-23 06:44:00,-999.0,-99.9,29.70,SSW,199,3.0,4.0,-999,-99.99,,,-99.99,,2013-07-23 10:44:00,
2013-07-23 06:52:00,-999.0,-99.9,29.70,South,189,3.0,5.0,-999,-99.99,,,-99.99,,2013-07-23 10:52:00,
2013-07-23 07:02:00,76.0,-99.9,29.70,North,-999,-999.0,-999.0,-999,-99.99,,,-99.99,,2013-07-23 11:02:00,
2013-07-23 07:12:00,-999.0,-99.9,29.69,SSW,193,5.0,6.0,-999,-99.99,,,-99.99,,2013-07-23 11:12:00,
2013-07-23 07:22:00,-999.0,-99.9,29.69,SW,215,4.0,8.0,-999,-99.99,,,-99.99,,2013-07-23 11:22:00,
2013-07-23 07:32:00,-999.0,-99.9,29.69,SW,215,4.0,8.0,-999,-99.99,,,-99.99,,2013-07-23 11:32:00,
2013-07-23 07:43:00,-999.0,-99.9,29.69,SSW,202,4.0,7.0,-999,-99.99,,,-99.99,,2013-07-23 11:43:00,
2013-07-23 07:52:00,-999.0,-99.9,29.69,SSW,209,5.0,9.0,-999,-99.99,,,-99.99,,2013-07-23 11:52:00,
2013-07-23 08:33:00,-999.0,-99.9,29.68,SW,234,7.0,11.0,-999,-99.99,,,-99.99,,2013-07-23 12:33:00,
2013-07-23 08:43:00,-999.0,-99.9,29.68,WSW,248,8.0,10.0,-999,-99.99,,,-99.99,,2013-07-23 12:43:00,
2013-07-23 09:02:00,-999.0,-99.9,29.68,SW,231,8.0,13.0,-999,-99.99,,,-99.99,,2013-07-23 13:02:00,
2013-07-23 09:11:00,-999.0,-99.9,29.67,WSW,253,10.0,14.0,-999,-99.99,,,-99.99,,2013-07-23 13:11:00,
2013-07-23 09:32:00,-999.0,-99.9,29.67,WSW,256,9.0,16.0,-999,-99.99,,,-99.99,,2013-07-23 13:32:00,
2013-07-23 10:22:00,82.0,-99.9,29.67,North,-999,-999.0,-999.0,-999,-99.99,,,-99.99,,2013-07-23 14:22:00,
2013-07-23 10:44:00,83.0,-99.9,29.67,North,-999,-999.0,-999.0,-999,-99.99,,,-99.99,,2013-07-23 14:44:00,
2013-07-23 11:24:00,-999.0,-99.9,29.66,SW,215,6.0,10.0,-999,-99.99,,,-99.99,,2013-07-23 15:24:00,
2013-07-23 11:43:00,-999.0,-99.9,29.66,SW,234,12.0,15.0,-999,-99.99,,,-99.99,,2013-07-23 15:43:00,
2013-07-23 12:01:00,84.0,-99.9,29.66,North,-999,-999.0,-999.0,-999,-99.99,,,-99.99,,2013-07-23 16:01:00,
2013-07-23 12:12:00,-999.0,-99.9,29.66,SW,231,8.0,13.0,-999,-99.99,,,-99.99,,2013-07-23 16:12:00,
2013-07-23 12:22:00,-999.0,-99.9,29.66,WSW,247,9.0,15.0,-999,-99.99,,,-99.99,,2013-07-23 16:22:00,
2013-07-23 12:33:00,-999.0,-99.9,29.66,SW,235,8.0,11.0,-999,-99.99,,,-99.99,,2013-07-23 16:33:00,
2013-07-23 12:43:00,86.0,-99.9,29.65,North,-999,-999.0,-999.0,-999,-99.99,,,-99.99,,2013-07-23 16:43:00,
2013-07-23 13:32:00,-999.0,-99.9,29.65,WSW,253,10.0,16.0,-999,-99.99,,,-99.99,,2013-07-23 17:32:00,
2013-07-23 13:42:00,-999.0,-99.9,29.65,West,263,10.0,19.0,-999,-99.99,,,-99.99,,2013-07-23 17:42:00,
2013-07-23 14:04:00,-999.0,-99.9,29.64,WSW,254,11.0,15.0,-999,-99.99,,,-99.99,,2013-07-23 18:04:00,
2013-07-23 14:26:00,-999.0,-99.9,29.64,WNW,292,12.0,16.0,-999,-99.99,,,-99.99,,2013-07-23 18:26:00,
2013-07-23 14:37:00,-999.0,-99.9,-100.00,WNW,303,13.0,14.0,-999,-99.99,,,-99.99,,2013-07-23 18:37:00,
2013-07-23 14:49:00,81.0,-99.9,29.64,WNW,303,13.0,14.0,-999,-99.99,,,-99.99,,2013-07-23 18:49:00,
2013-07-23 15:03:00,-999.0,-99.9,29.63,WNW,289,13.0,16.0,-999,-99.99,,,-99.99,,2013-07-23 19:03:00,
2013-07-23 15:15:00,82.0,-99.9,29.64,WNW,289,13.0,16.0,-999,-99.99,,,-99.99,,2013-07-23 19:15:00,
2013-07-23 15:28:00,82.0,-99.9,29.64,WNW,289,13.0,16.0,-999,-99.99,,,-99.99,,2013-07-23 19:28:00,
2013-07-23 15:36:00,-999.0,-99.9,29.64,West,281,12.0,14.0,-999,-99.99,,,-99.99,,2013-07-23 19:36:00,
2013-07-23 15:49:00,84.0,-99.9,29.64,WNW,283,11.0,13.0,-999,-99.99,,,-99.99,,2013-07-23 19:49:00,
2013-07-23 15:56:00,85.0,-99.9,29.63,WNW,303,12.0,14.0,-999,-99.99,,,-99.99,,2013-07-23 19:56:00,
2013-07-23 16:07:00,84.0,-99.9,29.62,WNW,294,12.0,14.0,-999,-99.99,,,-99.99,,2013-07-23 20:07:00,
2013-07-23 16:25:00,-999.0,-99.9,29.62,WNW,284,14.0,18.0,-999,-99.99,,,-99.99,,2013-07-23 20:25:00,
2013-07-23 16:35:00,-999.0,-99.9,29.62,WNW,301,10.0,14.0,-999,-99.99,,,-99.99,,2013-07-23 20:35:00,
2013-07-23 16:48:00,-999.0,-99.9,29.61,WNW,292,12.0,14.0,-999,-99.99,,,-99.99,,2013-07-23 20:48:00,
2013-07-23 17:15:00,-999.0,-99.9,29.61,WNW,295,12.0,15.0,-999,-99.99,,,-99.99,,2013-07-23 21:15:00,
2013-07-23 17:24:00,-999.0,-99.9,29.61,WNW,286,16.0,19.0,-999,-99.99,,,-99.99,,2013-07-23 21:24:00,
2013-07-23 17:48:00,-999.0,-99.9,29.61,WNW,288,15.0,19.0,-999,-99.99,,,-99.99,,2013-07-23 21:48:00,
2013-07-23 17:57:00,-999.0,-99.9,29.61,WNW,282,15.0,18.0,-999,-99.99,,,-99.99,,2013-07-23 21:57:00,
2013-07-23 18:06:00,-999.0,-99.9,29.61,WNW,290,13.0,16.0,-999,-99.99,,,-99.99,,2013-07-23 22:06:00,
2013-07-23 18:13:00,-999.0,-99.9,29.61,WNW,283,14.0,17.0,-999,-99.99,,,-99.99,,2013-07-23 22:13:00,
2013-07-23 18:36:00,-999.0,-99.9,29.61,WNW,293,16.0,19.0,-999,-99.99,,,-99.99,,2013-07-23 22:36:00,
2013-07-23 18:47:00,-999.0,-99.9,29.61,WNW,286,15.0,17.0,-999,-99.99,,,-99.99,,2013-07-23 22:47:00,
2013-07-23 19:02:00,-999.0,-99.9,29.61,WNW,290,12.0,15.0,-999,-99.99,,,-99.99,,2013-07-23 23:02:00,
2013-07-23 19:47:00,-999.0,-99.9,29.61,WNW,286,16.0,20.0,-999,-99.99,,,-99.99,,2013-07-23 23:47:00,
2013-07-23 20:26:00,-999.0,-99.9,29.62,West,278,13.0,15.0,-999,-99.99,,,-99.99,,2013-07-24 00:26:00,
2013-07-23 20:34:00,-999.0,-99.9,29.63,West,275,11.0,15.0,-999,-99.99,,,-99.99,,2013-07-24 00:34:00,
2013-07-23 20:50:00,-999.0,-99.9,29.63,West,275,8.0,11.0,-999,-99.99,,,-99.99,,2013-07-24 00:50:00,
2013-07-23 20:58:00,-999.0,-99.9,29.63,West,261,7.0,9.0,-999,-99.99,,,-99.99,,2013-07-24 00:58:00,
2013-07-23 21:04:00,-999.0,-99.9,29.64,West,263,7.0,9.0,-999,-99.99,,,-99.99,,2013-07-24 01:04:00,
2013-07-23 21:25:00,-999.0,-99.9,29.64,WSW,258,7.0,9.0,-999,-99.99,,,-99.99,,2013-07-24 01:25:00,
2013-07-23 21:48:00,81.0,-99.9,29.65,West,266,7.0,9.0,-999,-99.99,,,-99.99,,2013-07-24 01:48:00,
2013-07-23 22:19:00,-999.0,-99.9,29.67,West,272,10.0,12.0,-999,-99.99,,,-99.99,,2013-07-24 02:19:00,
2013-07-23 22:40:00,-999.0,-99.9,29.67,West,265,9.0,13.0,-999,-99.99,,,-99.99,,2013-07-24 02:40:00,
2013-07-23 23:13:00,-999.0,-99.9,29.67,WSW,253,6.0,8.0,-999,-99.99,,,-99.99,,2013-07-24 03:13:00,
2013-07-23 23:24:00,-999.0,-99.9,29.67,WSW,253,5.0,7.0,-999,-99.99,,,-99.99,,2013-07-24 03:24:00,
2013-07-23 23:47:00,-999.0,-99.9,29.67,WSW,253,6.0,9.0,-999,-99.99,,,-99.99,,2013-07-24 03:47:00,
2013-07-23 23:58:00,-999.0,-99.9,29.67,WSW,242,5.0,7.0,-999,-99.99,,,-99.99,,2013-07-24 03:58:00,